createdAt,value
2023-03-15T00:04:39.550Z,95240.41
2023-03-15T00:09:41.071Z,95257.69
2023-03-15T00:14:42.636Z,95279.88
2023-03-15T00:19:44.124Z,95303.06
2023-03-15T00:24:45.617Z,95287.47
2023-03-15T00:29:47.269Z,95305.72
2023-03-15T00:34:48.813Z,95310.25
2023-03-15T00:39:50.335Z,95318.19
2023-03-15T00:44:51.850Z,95330.72
2023-03-15T00:49:53.380Z,95332.47
2023-03-15T00:54:57.215Z,95338.81
2023-03-15T00:59:58.843Z,95347.47
2023-03-15T01:05:02.161Z,95367.91
2023-03-15T01:10:05.483Z,95380.75
2023-03-15T01:15:08.917Z,95396.13
2023-03-15T01:20:13.863Z,95402.78
2023-03-15T01:25:16.871Z,95414.34
2023-03-15T01:30:19.793Z,95416.25
2023-03-15T01:35:22.781Z,95428.03
2023-03-15T01:40:24.480Z,95440.91
2023-03-15T01:46:06.182Z,95454.38
2023-03-15T01:51:26.496Z,95463.31
2023-03-15T01:56:29.085Z,95478.69
2023-03-15T02:01:31.982Z,95477.13
2023-03-15T02:06:34.611Z,95497.06
2023-03-15T02:11:36.630Z,95502.50
2023-03-15T02:16:40.005Z,95512.38
2023-03-15T02:22:05.190Z,95530.41
2023-03-15T02:27:07.231Z,95531.38
2023-03-15T02:32:08.891Z,95543.16
2023-03-15T02:37:10.384Z,95553.44
2023-03-15T02:42:12.028Z,95554.72
2023-03-15T02:47:18.033Z,95564.75
2023-03-15T02:52:21.175Z,95573.44
2023-03-15T02:57:22.730Z,95584.41
2023-03-15T03:02:25.094Z,95593.94
2023-03-15T03:07:26.670Z,95585.09
2023-03-15T03:12:34.328Z,95596.16
2023-03-15T03:17:36.036Z,95610.69
2023-03-15T03:22:38.665Z,95614.03
2023-03-15T03:27:41.417Z,95618.31
2023-03-15T03:32:45.156Z,95625.09
2023-03-15T03:37:47.875Z,95632.91
2023-03-15T03:42:53.451Z,95642.13
2023-03-15T03:47:55.424Z,95648.84
2023-03-15T03:52:57.376Z,95659.25
2023-03-15T03:58:04.409Z,95665.81
2023-03-15T04:03:28.710Z,95670.31
2023-03-15T04:08:38.841Z,95679.94
2023-03-15T04:13:42.005Z,95679.84
2023-03-15T04:18:44.812Z,95689.16
2023-03-15T04:23:46.659Z,95684.25
2023-03-15T04:28:58.759Z,95703.91
2023-03-15T04:34:04.253Z,95699.63
2023-03-15T04:39:32.004Z,95706.09
2023-03-15T04:44:52.560Z,95719.59
2023-03-15T04:50:12.057Z,95722.34
2023-03-15T04:55:39.713Z,95724.53
2023-03-15T05:00:56.099Z,95730.16
2023-03-15T05:06:24.662Z,95730.38
2023-03-15T05:11:40.964Z,95747.31
2023-03-15T05:17:09.658Z,95756.13
2023-03-15T05:22:46.469Z,95764.31
2023-03-15T05:28:24.403Z,95773.94
2023-03-15T05:33:49.042Z,95777.56
2023-03-15T05:39:25.864Z,95784.75
2023-03-15T05:44:42.090Z,95786.06
2023-03-15T05:50:10.130Z,95784.75
2023-03-15T05:55:23.649Z,95790.75
2023-03-15T06:00:37.998Z,95795.63
2023-03-15T06:05:48.921Z,95805.94
2023-03-15T06:10:56.160Z,95798.56
2023-03-15T06:15:57.800Z,95803.69
2023-03-15T06:20:59.660Z,95807.97
2023-03-15T06:26:02.155Z,95812.06
2023-03-15T06:31:11.361Z,95818.72
2023-03-15T06:36:22.427Z,95819.91
2023-03-15T06:41:24.766Z,95817.47
2023-03-15T06:46:31.994Z,95818.66
2023-03-15T06:51:33.678Z,95828.19
2023-03-15T06:56:35.238Z,95829.50
2023-03-15T07:01:36.750Z,95820.53
2023-03-15T07:06:38.286Z,95832.06
2023-03-15T07:11:39.751Z,95829.56
2023-03-15T07:16:41.262Z,95834.38
2023-03-15T07:21:42.708Z,95836.78
2023-03-15T07:26:44.193Z,95838.69
2023-03-15T07:31:45.644Z,95843.13
2023-03-15T07:36:47.169Z,95847.75
2023-03-15T07:41:49.218Z,95856.50
2023-03-15T07:46:59.113Z,95847.78
2023-03-15T07:52:00.617Z,95850.25
2023-03-15T07:57:02.151Z,95851.53
2023-03-15T08:02:03.684Z,95850.59
2023-03-15T08:07:05.584Z,95849.88
2023-03-15T08:12:07.489Z,95853.56
2023-03-15T08:17:09.137Z,95851.03
2023-03-15T08:22:11.082Z,95863.00
2023-03-15T08:27:12.637Z,95865.41
2023-03-15T08:32:14.154Z,95856.06
2023-03-15T08:37:15.620Z,95857.66
2023-03-15T08:42:17.048Z,95854.00
2023-03-15T08:47:18.865Z,95859.06
2023-03-15T08:52:20.705Z,95853.88
2023-03-15T08:57:22.211Z,95856.53
2023-03-15T09:02:23.846Z,95851.28
2023-03-15T09:07:25.327Z,95846.28
2023-03-15T09:12:26.788Z,95851.25
2023-03-15T09:17:28.263Z,95854.56
2023-03-15T09:22:38.898Z,95848.69
2023-03-15T09:27:41.242Z,95852.47
2023-03-15T09:32:42.816Z,95875.81
2023-03-15T09:37:44.539Z,95864.34
2023-03-15T09:43:06.369Z,95870.66
2023-03-15T09:48:21.058Z,95862.41
2023-03-15T09:53:35.975Z,95871.00
2023-03-15T09:58:37.645Z,95871.25
2023-03-15T10:03:48.470Z,95868.97
2023-03-15T10:08:53.314Z,95874.69
2023-03-15T10:14:09.084Z,95868.81
2023-03-15T10:19:25.579Z,95863.81
2023-03-15T10:24:48.716Z,95859.63
2023-03-15T10:29:55.086Z,95853.50
2023-03-15T10:34:58.386Z,95846.91
2023-03-15T10:40:00.196Z,95860.94
2023-03-15T10:45:22.158Z,95852.09
2023-03-15T10:50:28.030Z,95846.53
2023-03-15T10:55:35.786Z,95847.50
2023-03-15T11:00:37.789Z,95848.31
2023-03-15T11:05:43.727Z,95843.97
2023-03-15T11:10:47.169Z,95834.72
2023-03-15T11:16:05.000Z,95834.84
2023-03-15T11:21:11.971Z,95837.66
2023-03-15T11:26:32.241Z,95820.84
2023-03-15T11:31:35.981Z,95816.84
2023-03-15T11:36:41.401Z,95812.44
2023-03-15T11:41:47.411Z,95820.59
2023-03-15T11:46:55.575Z,95812.06
2023-03-15T11:51:57.401Z,95809.56
2023-03-15T11:57:08.284Z,95810.03
2023-03-15T12:02:09.884Z,95797.25
2023-03-15T12:07:17.407Z,95792.25
2023-03-15T12:12:24.917Z,95788.97
2023-03-15T12:17:26.431Z,95790.38
2023-03-15T12:22:32.666Z,95785.97
2023-03-15T12:27:36.682Z,95788.25
2023-03-15T12:32:48.898Z,95781.88
2023-03-15T12:37:52.826Z,95780.66
2023-03-15T12:42:54.271Z,95774.47
2023-03-15T12:47:55.739Z,95769.34
2023-03-15T12:53:00.384Z,95767.25
2023-03-15T12:58:03.310Z,95768.53
2023-03-15T13:03:18.719Z,95777.16
2023-03-15T13:08:24.873Z,95770.44
2023-03-15T13:13:44.964Z,95785.06
2023-03-15T13:18:52.428Z,95778.81
2023-03-15T13:23:57.698Z,95775.03
2023-03-15T13:29:12.720Z,95775.16
2023-03-15T13:34:21.580Z,95769.03
2023-03-15T13:39:25.975Z,95771.44
2023-03-15T13:44:29.842Z,95774.78
2023-03-15T13:49:33.326Z,95769.19
2023-03-15T13:54:34.926Z,95769.63
2023-03-15T14:00:00.194Z,95767.50
2023-03-15T14:05:06.331Z,95766.91
2023-03-15T14:10:28.108Z,95759.44
2023-03-15T14:15:29.493Z,95758.66
2023-03-15T14:20:54.705Z,95766.13
2023-03-15T14:26:18.213Z,95766.31
2023-03-15T14:31:23.090Z,95765.88
2023-03-15T14:36:31.256Z,95773.38
2023-03-15T14:41:33.318Z,95772.53
2023-03-15T14:46:37.376Z,95767.81
2023-03-15T14:51:38.976Z,95770.81
2023-03-15T14:56:42.612Z,95769.59
2023-03-15T15:01:50.366Z,95768.31
2023-03-15T15:06:51.998Z,95771.75
2023-03-15T15:11:54.386Z,95769.91
2023-03-15T15:16:56.029Z,95753.13
2023-03-15T15:21:57.666Z,95757.63
2023-03-15T15:26:59.219Z,95756.28
2023-03-15T15:32:00.794Z,95761.06
2023-03-15T15:37:02.378Z,95764.97
2023-03-15T15:42:04.030Z,95758.41
2023-03-15T15:47:05.591Z,95763.28
2023-03-15T15:52:11.656Z,95769.44
2023-03-15T15:57:13.534Z,95786.28
2023-03-15T16:02:16.548Z,95792.28
2023-03-15T16:07:18.158Z,95790.75
2023-03-15T16:12:20.063Z,95800.63
2023-03-15T16:17:23.324Z,95800.19
2023-03-15T16:22:24.840Z,95806.03
2023-03-15T16:27:27.919Z,95815.13
2023-03-15T16:32:43.381Z,95824.91
2023-03-15T16:37:46.107Z,95826.94
2023-03-15T16:42:48.595Z,95831.31
2023-03-15T16:47:50.459Z,95840.75
2023-03-15T16:52:54.820Z,95841.38
2023-03-15T16:57:56.920Z,95847.22
2023-03-15T17:02:58.398Z,95855.13
2023-03-15T17:08:00.003Z,95854.75
2023-03-15T17:13:02.685Z,95855.94
2023-03-15T17:18:13.622Z,95868.19
2023-03-15T17:23:16.241Z,95877.34
2023-03-15T17:28:17.755Z,95898.63
2023-03-15T17:33:19.280Z,95903.91
2023-03-15T17:38:30.435Z,95906.38
2023-03-15T17:43:31.907Z,95912.28
2023-03-15T17:48:33.365Z,95918.47
2023-03-15T17:53:35.900Z,95920.72
2023-03-15T17:58:37.641Z,95926.25
2023-03-15T18:03:39.600Z,95931.69
2023-03-15T18:08:42.208Z,95939.91
2023-03-15T18:13:43.782Z,95939.13
2023-03-15T18:18:45.417Z,95949.25
2023-03-15T18:23:47.532Z,95951.31
2023-03-15T18:28:49.062Z,95949.75
2023-03-15T18:33:51.666Z,95952.41
2023-03-15T18:38:53.242Z,95949.41
2023-03-15T18:43:54.708Z,95963.16
2023-03-15T18:48:56.322Z,95948.34
2023-03-15T18:54:00.559Z,95947.69
2023-03-15T18:59:02.112Z,95954.78
2023-03-15T19:04:03.915Z,95954.44
2023-03-15T19:09:05.683Z,95951.41
2023-03-15T19:14:08.467Z,95953.09
2023-03-15T19:19:09.884Z,95958.66
2023-03-15T19:24:11.519Z,95960.09
2023-03-15T19:29:12.955Z,95959.22
2023-03-15T19:34:14.482Z,95958.91
2023-03-15T19:39:16.056Z,95959.97
2023-03-15T19:44:17.573Z,95957.94
2023-03-15T19:49:19.109Z,95953.84
2023-03-15T19:54:20.558Z,95954.66
2023-03-15T19:59:22.072Z,95945.91
2023-03-15T20:04:23.553Z,95945.41
2023-03-15T20:09:25.064Z,95949.03
2023-03-15T20:14:26.575Z,95957.31
2023-03-15T20:19:28.102Z,95951.88
2023-03-15T20:24:29.690Z,95966.75
2023-03-15T20:29:31.769Z,95977.63
2023-03-15T20:34:33.430Z,95980.72
2023-03-15T20:39:35.204Z,95981.88
2023-03-15T20:44:37.416Z,95990.25
2023-03-15T20:49:39.069Z,95989.38
2023-03-15T20:54:41.224Z,95998.75
2023-03-15T20:59:43.047Z,95996.25
2023-03-15T21:04:44.721Z,96000.53
2023-03-15T21:09:46.225Z,95997.84
2023-03-15T21:14:47.770Z,96004.78
2023-03-15T21:19:49.284Z,96005.84
2023-03-15T21:24:56.034Z,96003.31
2023-03-15T21:29:58.248Z,95988.41
2023-03-15T21:34:59.827Z,96001.41
2023-03-15T21:40:01.328Z,96000.25
2023-03-15T21:45:03.025Z,95996.16
2023-03-15T21:50:04.932Z,96002.81
2023-03-15T21:55:08.401Z,96005.94
2023-03-15T22:00:10.949Z,95998.34
2023-03-15T22:05:13.384Z,95989.28
2023-03-15T22:10:15.250Z,96003.75
2023-03-15T22:15:16.796Z,96013.63
2023-03-15T22:20:18.402Z,96012.63
2023-03-15T22:25:19.935Z,96020.63
2023-03-15T22:30:21.569Z,96016.13
2023-03-15T22:35:23.212Z,96015.88
2023-03-15T22:40:27.418Z,96003.56
2023-03-15T22:45:29.158Z,96010.78
2023-03-15T22:50:31.053Z,96018.25
2023-03-15T22:55:32.527Z,96018.25
2023-03-15T23:00:34.045Z,96020.59
2023-03-15T23:05:35.559Z,96014.53
2023-03-15T23:10:37.376Z,96009.97
2023-03-15T23:15:39.064Z,96005.75
2023-03-15T23:20:41.716Z,96007.53
2023-03-15T23:25:43.931Z,96004.47
2023-03-15T23:30:45.379Z,96004.63
2023-03-15T23:35:46.909Z,96003.97
2023-03-15T23:40:58.480Z,96008.56
2023-03-15T23:46:02.698Z,96014.41
2023-03-15T23:51:04.339Z,96008.91
2023-03-15T23:56:06.220Z,96008.38
